Status Flugplatz

Der Flugplatz ist offen
PPR Regelung ! PJE !!!

123.15 MHz
RWY 05/23

flüger beizli - Öffnungszeiten
Freitag ab 16:00
Samstag +Sonntag ab 11:00
Bei schönem Wetter öffnen wir früher! Tel.: 079 234 07 74

So gelangen Sie zum Flugplatz Biel-Kappelen

Öffentliche Verkehrsmittel

Benützen Sie den Bus ab Biel (28 Min.) oder Lyss (7 Min.).
Bushaltestelle 'Worben Bad'

Privatfahrzeug

Der Flugplatz Biel-Kappelen ist mit dem Auto oder Motorrad ab Biel in 10 Minuten und ab Bern in 20 Minuten erreichbar.
Von der Autobahnausfahrt 'Lyss Nord' in Richtung Biel erreichen sie den Flugplatz nach ca 800m  auf der linken Seite.

Fahrrad

Der Flugplatz liegt an der Veloroute #64 Lötschberg-Jura (Kandersteg-Boncourt)

siehe auch: Veloland Schweiz

...oder natürlich mit dem Flugzeug - siehe Pilots only

 

 

Wetter Kappelen

 


 

[source: ADDS]
METAR
LSZG 232350Z AUTO VRB02KT CAVOK 03/03 Q1017 =
TAF
TAF LSZG 231425Z 2315/2324 25005KT CAVOK PROB40 2321/2324 9999 SCT060 PROB30 2322/2324 1500 BKN008 =
SR / SS: 06:49 / 15:48 UTC ( 2017-11-24)

 


 

Flugplatz Biel-Kappelen LSZP - 123.15MHz - 032 384 46 84

Email: Diese E-Mail-Adresse ist vor Spambots geschützt! Zur Anzeige muss JavaScript eingeschaltet sein!
www.lszp.ch
2017 © by mb

Zum Anfang